sensor_id;sensor_type;location;lat;lon;timestamp;P1;durP1;ratioP1;P2;durP2;ratioP2
75441;SDS011;64019;48.312;14.226;2023-04-08T00:01:07;17.20;;;8.90;;
75441;SDS011;64019;48.312;14.226;2023-04-08T00:03:33;16.07;;;7.80;;
75441;SDS011;64019;48.312;14.226;2023-04-08T00:05:58;15.97;;;9.13;;
75441;SDS011;64019;48.312;14.226;2023-04-08T00:08:26;17.73;;;8.67;;
75441;SDS011;64019;48.312;14.226;2023-04-08T00:10:52;17.50;;;8.80;;
75441;SDS011;64019;48.312;14.226;2023-04-08T00:13:18;19.00;;;9.00;;
75441;SDS011;64019;48.312;14.226;2023-04-08T00:15:43;14.33;;;8.30;;
75441;SDS011;64019;48.312;14.226;2023-04-08T00:18:09;19.40;;;9.47;;
75441;SDS011;64019;48.312;14.226;2023-04-08T00:20:35;15.77;;;9.03;;
75441;SDS011;64019;48.312;14.226;2023-04-08T00:23:01;17.03;;;8.63;;
75441;SDS011;64019;48.312;14.226;2023-04-08T00:25:26;18.63;;;10.10;;
75441;SDS011;64019;48.312;14.226;2023-04-08T00:27:52;19.33;;;9.27;;
75441;SDS011;64019;48.312;14.226;2023-04-08T00:30:18;14.53;;;8.97;;
75441;SDS011;64019;48.312;14.226;2023-04-08T00:32:44;16.70;;;8.97;;
75441;SDS011;64019;48.312;14.226;2023-04-08T00:35:09;18.40;;;9.63;;
75441;SDS011;64019;48.312;14.226;2023-04-08T00:37:36;16.10;;;8.70;;
75441;SDS011;64019;48.312;14.226;2023-04-08T00:40:02;17.50;;;9.37;;
75441;SDS011;64019;48.312;14.226;2023-04-08T00:42:28;17.37;;;9.90;;
75441;SDS011;64019;48.312;14.226;2023-04-08T00:44:54;17.93;;;9.30;;
75441;SDS011;64019;48.312;14.226;2023-04-08T00:47:20;17.27;;;8.63;;
75441;SDS011;64019;48.312;14.226;2023-04-08T00:49:46;17.53;;;9.03;;
75441;SDS011;64019;48.312;14.226;2023-04-08T00:52:13;21.53;;;9.90;;
75441;SDS011;64019;48.312;14.226;2023-04-08T00:54:38;17.13;;;9.33;;
75441;SDS011;64019;48.312;14.226;2023-04-08T00:57:05;18.77;;;8.63;;
75441;SDS011;64019;48.312;14.226;2023-04-08T00:59:32;15.37;;;10.13;;
75441;SDS011;64019;48.312;14.226;2023-04-08T01:02:18;17.30;;;9.30;;
75441;SDS011;64019;48.312;14.226;2023-04-08T01:07:46;16.80;;;9.07;;
75441;SDS011;64019;48.312;14.226;2023-04-08T01:12:55;16.13;;;9.43;;
75441;SDS011;64019;48.312;14.226;2023-04-08T01:15:23;22.07;;;10.17;;
75441;SDS011;64019;48.312;14.226;2023-04-08T01:17:52;16.63;;;9.83;;
75441;SDS011;64019;48.312;14.226;2023-04-08T01:20:20;15.93;;;9.50;;
75441;SDS011;64019;48.312;14.226;2023-04-08T01:22:57;19.40;;;9.70;;
75441;SDS011;64019;48.312;14.226;2023-04-08T01:25:29;18.27;;;9.30;;
75441;SDS011;64019;48.312;14.226;2023-04-08T01:27:57;18.13;;;9.53;;
75441;SDS011;64019;48.312;14.226;2023-04-08T01:30:25;17.97;;;9.67;;
75441;SDS011;64019;48.312;14.226;2023-04-08T01:32:54;13.67;;;8.77;;
75441;SDS011;64019;48.312;14.226;2023-04-08T01:35:21;19.93;;;9.37;;
75441;SDS011;64019;48.312;14.226;2023-04-08T01:37:48;20.40;;;9.93;;
75441;SDS011;64019;48.312;14.226;2023-04-08T01:40:18;15.63;;;9.57;;
75441;SDS011;64019;48.312;14.226;2023-04-08T01:42:47;19.30;;;9.57;;
75441;SDS011;64019;48.312;14.226;2023-04-08T01:45:14;18.70;;;9.47;;
75441;SDS011;64019;48.312;14.226;2023-04-08T01:47:42;16.90;;;8.93;;
75441;SDS011;64019;48.312;14.226;2023-04-08T01:50:11;17.43;;;9.47;;
75441;SDS011;64019;48.312;14.226;2023-04-08T01:52:39;22.77;;;8.47;;
75441;SDS011;64019;48.312;14.226;2023-04-08T01:55:07;17.87;;;9.50;;
75441;SDS011;64019;48.312;14.226;2023-04-08T01:57:34;14.73;;;8.63;;
75441;SDS011;64019;48.312;14.226;2023-04-08T02:00:04;14.23;;;8.60;;
75441;SDS011;64019;48.312;14.226;2023-04-08T02:02:32;13.63;;;8.53;;
75441;SDS011;64019;48.312;14.226;2023-04-08T02:05:00;17.00;;;8.83;;
75441;SDS011;64019;48.312;14.226;2023-04-08T02:07:25;18.13;;;9.57;;
75441;SDS011;64019;48.312;14.226;2023-04-08T02:09:51;17.17;;;9.30;;
75441;SDS011;64019;48.312;14.226;2023-04-08T02:12:17;16.03;;;9.83;;
75441;SDS011;64019;48.312;14.226;2023-04-08T02:14:43;17.23;;;9.23;;
75441;SDS011;64019;48.312;14.226;2023-04-08T02:17:13;15.60;;;9.20;;
75441;SDS011;64019;48.312;14.226;2023-04-08T02:19:59;16.80;;;9.70;;
75441;SDS011;64019;48.312;14.226;2023-04-08T02:22:47;15.67;;;9.17;;
75441;SDS011;64019;48.312;14.226;2023-04-08T02:25:16;16.53;;;9.43;;
75441;SDS011;64019;48.312;14.226;2023-04-08T02:27:47;17.10;;;10.00;;
75441;SDS011;64019;48.312;14.226;2023-04-08T02:30:14;21.23;;;9.80;;
75441;SDS011;64019;48.312;14.226;2023-04-08T02:32:40;19.03;;;9.30;;
75441;SDS011;64019;48.312;14.226;2023-04-08T02:35:07;19.07;;;9.83;;
75441;SDS011;64019;48.312;14.226;2023-04-08T02:37:35;19.63;;;10.30;;
75441;SDS011;64019;48.312;14.226;2023-04-08T02:40:01;21.77;;;10.23;;
75441;SDS011;64019;48.312;14.226;2023-04-08T02:42:26;16.87;;;9.53;;
75441;SDS011;64019;48.312;14.226;2023-04-08T02:44:52;18.93;;;9.77;;
75441;SDS011;64019;48.312;14.226;2023-04-08T02:47:18;17.17;;;9.47;;
75441;SDS011;64019;48.312;14.226;2023-04-08T02:49:43;17.37;;;9.60;;
75441;SDS011;64019;48.312;14.226;2023-04-08T02:52:09;18.50;;;9.63;;
75441;SDS011;64019;48.312;14.226;2023-04-08T02:54:35;16.43;;;9.53;;
75441;SDS011;64019;48.312;14.226;2023-04-08T02:57:00;18.07;;;9.83;;
75441;SDS011;64019;48.312;14.226;2023-04-08T02:59:26;20.67;;;9.83;;
75441;SDS011;64019;48.312;14.226;2023-04-08T03:01:52;21.20;;;10.63;;
75441;SDS011;64019;48.312;14.226;2023-04-08T03:04:17;19.90;;;11.23;;
75441;SDS011;64019;48.312;14.226;2023-04-08T03:06:43;19.50;;;10.00;;
75441;SDS011;64019;48.312;14.226;2023-04-08T03:09:08;22.83;;;10.37;;
75441;SDS011;64019;48.312;14.226;2023-04-08T03:11:34;16.70;;;9.77;;
75441;SDS011;64019;48.312;14.226;2023-04-08T03:14:00;21.20;;;9.87;;
75441;SDS011;64019;48.312;14.226;2023-04-08T03:16:25;17.60;;;9.77;;
75441;SDS011;64019;48.312;14.226;2023-04-08T03:18:51;19.73;;;10.27;;
75441;SDS011;64019;48.312;14.226;2023-04-08T03:21:17;17.93;;;10.37;;
75441;SDS011;64019;48.312;14.226;2023-04-08T03:23:43;17.50;;;10.07;;
75441;SDS011;64019;48.312;14.226;2023-04-08T03:26:09;22.90;;;11.07;;
75441;SDS011;64019;48.312;14.226;2023-04-08T03:28:35;16.10;;;9.93;;
75441;SDS011;64019;48.312;14.226;2023-04-08T03:31:02;25.83;;;10.13;;
75441;SDS011;64019;48.312;14.226;2023-04-08T03:33:28;20.57;;;10.70;;
75441;SDS011;64019;48.312;14.226;2023-04-08T03:35:54;16.47;;;9.83;;
75441;SDS011;64019;48.312;14.226;2023-04-08T03:38:20;21.53;;;11.03;;
75441;SDS011;64019;48.312;14.226;2023-04-08T03:40:46;23.90;;;11.40;;
75441;SDS011;64019;48.312;14.226;2023-04-08T03:43:12;21.53;;;10.67;;
75441;SDS011;64019;48.312;14.226;2023-04-08T03:45:38;17.40;;;10.33;;
75441;SDS011;64019;48.312;14.226;2023-04-08T03:48:04;26.87;;;14.67;;
75441;SDS011;64019;48.312;14.226;2023-04-08T03:50:30;27.17;;;15.13;;
75441;SDS011;64019;48.312;14.226;2023-04-08T03:52:55;28.63;;;14.13;;
75441;SDS011;64019;48.312;14.226;2023-04-08T03:55:21;23.93;;;13.77;;
75441;SDS011;64019;48.312;14.226;2023-04-08T03:57:47;33.23;;;16.97;;
75441;SDS011;64019;48.312;14.226;2023-04-08T04:00:13;32.10;;;16.13;;
75441;SDS011;64019;48.312;14.226;2023-04-08T04:02:39;22.77;;;13.37;;
75441;SDS011;64019;48.312;14.226;2023-04-08T04:05:05;18.73;;;11.30;;
75441;SDS011;64019;48.312;14.226;2023-04-08T04:07:30;22.77;;;11.97;;
75441;SDS011;64019;48.312;14.226;2023-04-08T04:09:56;20.60;;;12.67;;
75441;SDS011;64019;48.312;14.226;2023-04-08T04:12:22;20.47;;;12.03;;
75441;SDS011;64019;48.312;14.226;2023-04-08T04:14:48;25.60;;;13.00;;
75441;SDS011;64019;48.312;14.226;2023-04-08T04:17:14;24.57;;;12.70;;
75441;SDS011;64019;48.312;14.226;2023-04-08T04:19:40;25.57;;;11.97;;
75441;SDS011;64019;48.312;14.226;2023-04-08T04:22:06;22.90;;;12.50;;
75441;SDS011;64019;48.312;14.226;2023-04-08T04:24:31;25.33;;;12.97;;
75441;SDS011;64019;48.312;14.226;2023-04-08T04:26:57;23.80;;;12.90;;
75441;SDS011;64019;48.312;14.226;2023-04-08T04:29:23;24.47;;;12.83;;
75441;SDS011;64019;48.312;14.226;2023-04-08T04:31:48;27.83;;;13.33;;
75441;SDS011;64019;48.312;14.226;2023-04-08T04:34:14;22.87;;;11.77;;
75441;SDS011;64019;48.312;14.226;2023-04-08T04:36:40;18.60;;;9.83;;
75441;SDS011;64019;48.312;14.226;2023-04-08T04:39:05;17.60;;;9.63;;
75441;SDS011;64019;48.312;14.226;2023-04-08T04:41:31;15.57;;;8.67;;
75441;SDS011;64019;48.312;14.226;2023-04-08T04:43:57;15.03;;;8.30;;
75441;SDS011;64019;48.312;14.226;2023-04-08T04:46:22;14.67;;;7.53;;
75441;SDS011;64019;48.312;14.226;2023-04-08T04:48:48;12.83;;;7.47;;
75441;SDS011;64019;48.312;14.226;2023-04-08T04:51:13;14.33;;;7.80;;
75441;SDS011;64019;48.312;14.226;2023-04-08T04:53:39;16.83;;;7.90;;
75441;SDS011;64019;48.312;14.226;2023-04-08T04:56:05;11.23;;;7.13;;
75441;SDS011;64019;48.312;14.226;2023-04-08T04:58:31;11.07;;;6.83;;
75441;SDS011;64019;48.312;14.226;2023-04-08T05:00:56;12.17;;;6.80;;
75441;SDS011;64019;48.312;14.226;2023-04-08T05:03:22;11.20;;;7.07;;
75441;SDS011;64019;48.312;14.226;2023-04-08T05:05:51;11.80;;;7.43;;
75441;SDS011;64019;48.312;14.226;2023-04-08T05:08:20;10.80;;;6.97;;
75441;SDS011;64019;48.312;14.226;2023-04-08T05:10:46;13.03;;;8.00;;
75441;SDS011;64019;48.312;14.226;2023-04-08T05:13:14;11.63;;;7.07;;
75441;SDS011;64019;48.312;14.226;2023-04-08T05:15:39;12.33;;;7.27;;
75441;SDS011;64019;48.312;14.226;2023-04-08T05:18:05;17.80;;;7.00;;
75441;SDS011;64019;48.312;14.226;2023-04-08T05:20:31;13.30;;;6.37;;
75441;SDS011;64019;48.312;14.226;2023-04-08T05:22:56;11.17;;;6.80;;
75441;SDS011;64019;48.312;14.226;2023-04-08T05:25:22;8.90;;;5.80;;
75441;SDS011;64019;48.312;14.226;2023-04-08T05:27:47;13.90;;;6.70;;
75441;SDS011;64019;48.312;14.226;2023-04-08T05:30:13;12.23;;;6.30;;
75441;SDS011;64019;48.312;14.226;2023-04-08T05:32:40;10.10;;;5.87;;
75441;SDS011;64019;48.312;14.226;2023-04-08T05:35:06;8.73;;;5.43;;
75441;SDS011;64019;48.312;14.226;2023-04-08T05:37:32;11.07;;;4.97;;
75441;SDS011;64019;48.312;14.226;2023-04-08T05:39:57;9.80;;;5.10;;
75441;SDS011;64019;48.312;14.226;2023-04-08T05:42:23;11.60;;;5.63;;
75441;SDS011;64019;48.312;14.226;2023-04-08T05:44:48;9.17;;;4.57;;
75441;SDS011;64019;48.312;14.226;2023-04-08T05:47:14;7.43;;;4.50;;
75441;SDS011;64019;48.312;14.226;2023-04-08T05:49:40;8.47;;;4.20;;
75441;SDS011;64019;48.312;14.226;2023-04-08T05:52:05;8.80;;;4.30;;
75441;SDS011;64019;48.312;14.226;2023-04-08T05:54:31;6.37;;;3.93;;
75441;SDS011;64019;48.312;14.226;2023-04-08T05:56:57;6.93;;;4.20;;
75441;SDS011;64019;48.312;14.226;2023-04-08T05:59:22;6.40;;;4.30;;
75441;SDS011;64019;48.312;14.226;2023-04-08T06:01:48;7.17;;;3.90;;
75441;SDS011;64019;48.312;14.226;2023-04-08T06:04:14;5.63;;;4.00;;
75441;SDS011;64019;48.312;14.226;2023-04-08T06:06:41;7.30;;;4.17;;
75441;SDS011;64019;48.312;14.226;2023-04-08T06:09:07;9.53;;;4.53;;
75441;SDS011;64019;48.312;14.226;2023-04-08T06:11:34;6.37;;;3.70;;
75441;SDS011;64019;48.312;14.226;2023-04-08T06:14:00;5.27;;;3.40;;
75441;SDS011;64019;48.312;14.226;2023-04-08T06:16:25;6.47;;;3.57;;
75441;SDS011;64019;48.312;14.226;2023-04-08T06:18:51;7.40;;;4.07;;
75441;SDS011;64019;48.312;14.226;2023-04-08T06:21:16;7.33;;;3.40;;
75441;SDS011;64019;48.312;14.226;2023-04-08T06:23:42;6.03;;;3.10;;
75441;SDS011;64019;48.312;14.226;2023-04-08T06:26:08;6.07;;;3.37;;
75441;SDS011;64019;48.312;14.226;2023-04-08T06:28:33;8.10;;;3.63;;
75441;SDS011;64019;48.312;14.226;2023-04-08T06:30:59;4.93;;;3.43;;
75441;SDS011;64019;48.312;14.226;2023-04-08T06:33:25;7.40;;;3.37;;
75441;SDS011;64019;48.312;14.226;2023-04-08T06:35:51;7.43;;;3.40;;
75441;SDS011;64019;48.312;14.226;2023-04-08T06:38:25;5.07;;;3.43;;
75441;SDS011;64019;48.312;14.226;2023-04-08T06:40:50;5.70;;;3.67;;
75441;SDS011;64019;48.312;14.226;2023-04-08T06:43:16;5.23;;;3.37;;
75441;SDS011;64019;48.312;14.226;2023-04-08T06:45:41;9.83;;;3.60;;
75441;SDS011;64019;48.312;14.226;2023-04-08T06:48:07;4.60;;;3.03;;
75441;SDS011;64019;48.312;14.226;2023-04-08T06:50:33;4.40;;;2.93;;
75441;SDS011;64019;48.312;14.226;2023-04-08T06:52:59;7.80;;;3.23;;
75441;SDS011;64019;48.312;14.226;2023-04-08T06:55:24;7.43;;;3.97;;
75441;SDS011;64019;48.312;14.226;2023-04-08T06:57:51;4.93;;;3.37;;
75441;SDS011;64019;48.312;14.226;2023-04-08T07:00:16;5.20;;;3.43;;
75441;SDS011;64019;48.312;14.226;2023-04-08T07:02:42;7.37;;;3.40;;
75441;SDS011;64019;48.312;14.226;2023-04-08T07:05:08;5.67;;;3.57;;
75441;SDS011;64019;48.312;14.226;2023-04-08T07:07:34;6.50;;;3.43;;
75441;SDS011;64019;48.312;14.226;2023-04-08T07:10:00;6.03;;;4.00;;
75441;SDS011;64019;48.312;14.226;2023-04-08T07:12:25;6.37;;;4.17;;
75441;SDS011;64019;48.312;14.226;2023-04-08T07:14:51;8.83;;;4.43;;
75441;SDS011;64019;48.312;14.226;2023-04-08T07:17:17;9.70;;;4.77;;
75441;SDS011;64019;48.312;14.226;2023-04-08T07:19:42;7.00;;;3.97;;
75441;SDS011;64019;48.312;14.226;2023-04-08T07:22:08;7.37;;;4.47;;
75441;SDS011;64019;48.312;14.226;2023-04-08T07:24:34;8.10;;;4.50;;
75441;SDS011;64019;48.312;14.226;2023-04-08T07:27:00;9.33;;;4.87;;
75441;SDS011;64019;48.312;14.226;2023-04-08T07:29:26;7.53;;;5.10;;
75441;SDS011;64019;48.312;14.226;2023-04-08T07:31:52;9.70;;;5.90;;
75441;SDS011;64019;48.312;14.226;2023-04-08T07:34:17;9.97;;;5.73;;
75441;SDS011;64019;48.312;14.226;2023-04-08T07:36:43;12.70;;;6.10;;
75441;SDS011;64019;48.312;14.226;2023-04-08T07:39:09;12.43;;;6.07;;
75441;SDS011;64019;48.312;14.226;2023-04-08T07:41:35;9.53;;;6.27;;
75441;SDS011;64019;48.312;14.226;2023-04-08T07:44:01;13.97;;;6.47;;
75441;SDS011;64019;48.312;14.226;2023-04-08T07:46:26;12.17;;;6.83;;
75441;SDS011;64019;48.312;14.226;2023-04-08T07:54:03;13.67;;;8.37;;
75441;SDS011;64019;48.312;14.226;2023-04-08T07:56:28;15.03;;;7.70;;
75441;SDS011;64019;48.312;14.226;2023-04-08T07:58:54;15.40;;;8.40;;
75441;SDS011;64019;48.312;14.226;2023-04-08T08:01:20;18.03;;;9.57;;
75441;SDS011;64019;48.312;14.226;2023-04-08T08:03:47;15.33;;;9.13;;
75441;SDS011;64019;48.312;14.226;2023-04-08T08:06:13;17.80;;;9.40;;
75441;SDS011;64019;48.312;14.226;2023-04-08T08:08:39;15.13;;;9.60;;
75441;SDS011;64019;48.312;14.226;2023-04-08T08:11:05;16.67;;;9.50;;
75441;SDS011;64019;48.312;14.226;2023-04-08T08:13:31;16.80;;;9.70;;
75441;SDS011;64019;48.312;14.226;2023-04-08T08:15:57;18.57;;;10.20;;
75441;SDS011;64019;48.312;14.226;2023-04-08T08:18:23;16.47;;;9.90;;
75441;SDS011;64019;48.312;14.226;2023-04-08T08:20:48;18.43;;;10.83;;
75441;SDS011;64019;48.312;14.226;2023-04-08T08:23:14;18.73;;;10.63;;
75441;SDS011;64019;48.312;14.226;2023-04-08T08:25:40;20.73;;;11.60;;
75441;SDS011;64019;48.312;14.226;2023-04-08T08:28:06;19.83;;;10.57;;
75441;SDS011;64019;48.312;14.226;2023-04-08T08:30:32;21.13;;;11.70;;
75441;SDS011;64019;48.312;14.226;2023-04-08T08:32:57;18.53;;;11.50;;
75441;SDS011;64019;48.312;14.226;2023-04-08T08:35:24;20.63;;;11.63;;
75441;SDS011;64019;48.312;14.226;2023-04-08T08:37:50;19.03;;;11.63;;
75441;SDS011;64019;48.312;14.226;2023-04-08T08:40:16;18.00;;;11.03;;
75441;SDS011;64019;48.312;14.226;2023-04-08T08:42:41;21.57;;;11.30;;
75441;SDS011;64019;48.312;14.226;2023-04-08T08:45:16;19.17;;;10.90;;
75441;SDS011;64019;48.312;14.226;2023-04-08T08:47:43;17.63;;;9.97;;
75441;SDS011;64019;48.312;14.226;2023-04-08T08:50:09;22.07;;;10.10;;
75441;SDS011;64019;48.312;14.226;2023-04-08T08:52:35;16.57;;;10.20;;
75441;SDS011;64019;48.312;14.226;2023-04-08T08:55:00;19.93;;;10.07;;
75441;SDS011;64019;48.312;14.226;2023-04-08T08:57:26;17.87;;;10.93;;
75441;SDS011;64019;48.312;14.226;2023-04-08T08:59:52;15.67;;;9.63;;
75441;SDS011;64019;48.312;14.226;2023-04-08T09:02:28;16.97;;;9.60;;
75441;SDS011;64019;48.312;14.226;2023-04-08T09:04:59;14.87;;;9.57;;
75441;SDS011;64019;48.312;14.226;2023-04-08T09:07:26;15.90;;;9.43;;
75441;SDS011;64019;48.312;14.226;2023-04-08T09:09:53;16.03;;;9.47;;
75441;SDS011;64019;48.312;14.226;2023-04-08T09:12:20;16.40;;;9.60;;
75441;SDS011;64019;48.312;14.226;2023-04-08T09:14:46;15.73;;;9.93;;
75441;SDS011;64019;48.312;14.226;2023-04-08T09:17:12;20.23;;;10.33;;
75441;SDS011;64019;48.312;14.226;2023-04-08T09:19:38;18.30;;;9.60;;
75441;SDS011;64019;48.312;14.226;2023-04-08T09:22:24;14.33;;;8.93;;
75441;SDS011;64019;48.312;14.226;2023-04-08T09:24:50;16.23;;;9.03;;
75441;SDS011;64019;48.312;14.226;2023-04-08T09:27:28;18.03;;;9.30;;
75441;SDS011;64019;48.312;14.226;2023-04-08T09:30:12;14.57;;;8.60;;
75441;SDS011;64019;48.312;14.226;2023-04-08T09:32:47;15.83;;;8.87;;
75441;SDS011;64019;48.312;14.226;2023-04-08T09:35:13;14.00;;;9.13;;
75441;SDS011;64019;48.312;14.226;2023-04-08T09:37:41;14.50;;;9.10;;
75441;SDS011;64019;48.312;14.226;2023-04-08T09:40:08;14.47;;;8.20;;
75441;SDS011;64019;48.312;14.226;2023-04-08T09:42:38;14.03;;;8.20;;
75441;SDS011;64019;48.312;14.226;2023-04-08T09:45:07;15.07;;;9.13;;
75441;SDS011;64019;48.312;14.226;2023-04-08T09:47:38;17.03;;;9.40;;
75441;SDS011;64019;48.312;14.226;2023-04-08T09:50:28;13.50;;;8.60;;
75441;SDS011;64019;48.312;14.226;2023-04-08T09:53:23;15.43;;;9.17;;
75441;SDS011;64019;48.312;14.226;2023-04-08T09:55:54;14.97;;;8.70;;
75441;SDS011;64019;48.312;14.226;2023-04-08T09:58:23;14.00;;;8.47;;
75441;SDS011;64019;48.312;14.226;2023-04-08T10:00:54;15.03;;;8.77;;
75441;SDS011;64019;48.312;14.226;2023-04-08T10:03:24;14.20;;;8.40;;
75441;SDS011;64019;48.312;14.226;2023-04-08T10:05:52;14.70;;;9.00;;
75441;SDS011;64019;48.312;14.226;2023-04-08T10:08:18;12.33;;;8.60;;
75441;SDS011;64019;48.312;14.226;2023-04-08T10:10:44;13.60;;;8.80;;
75441;SDS011;64019;48.312;14.226;2023-04-08T10:13:10;17.27;;;9.60;;
75441;SDS011;64019;48.312;14.226;2023-04-08T10:15:36;13.60;;;8.47;;
75441;SDS011;64019;48.312;14.226;2023-04-08T10:23:11;14.47;;;9.33;;
75441;SDS011;64019;48.312;14.226;2023-04-08T10:25:39;12.17;;;8.80;;
75441;SDS011;64019;48.312;14.226;2023-04-08T10:30:43;16.63;;;9.10;;
75441;SDS011;64019;48.312;14.226;2023-04-08T10:33:17;12.73;;;9.20;;
75441;SDS011;64019;48.312;14.226;2023-04-08T10:35:48;18.67;;;9.50;;
75441;SDS011;64019;48.312;14.226;2023-04-08T10:38:18;13.97;;;8.30;;
75441;SDS011;64019;48.312;14.226;2023-04-08T10:40:46;13.00;;;8.57;;
75441;SDS011;64019;48.312;14.226;2023-04-08T10:43:13;13.70;;;9.03;;
75441;SDS011;64019;48.312;14.226;2023-04-08T10:45:40;13.57;;;8.70;;
75441;SDS011;64019;48.312;14.226;2023-04-08T10:50:39;14.87;;;9.27;;
75441;SDS011;64019;48.312;14.226;2023-04-08T10:53:05;13.63;;;8.23;;
75441;SDS011;64019;48.312;14.226;2023-04-08T10:55:31;15.57;;;8.70;;
75441;SDS011;64019;48.312;14.226;2023-04-08T10:58:04;11.73;;;8.23;;
75441;SDS011;64019;48.312;14.226;2023-04-08T11:00:34;12.33;;;8.23;;
75441;SDS011;64019;48.312;14.226;2023-04-08T11:03:05;14.23;;;8.93;;
75441;SDS011;64019;48.312;14.226;2023-04-08T11:05:34;13.23;;;7.73;;
75441;SDS011;64019;48.312;14.226;2023-04-08T11:08:02;18.30;;;7.83;;
75441;SDS011;64019;48.312;14.226;2023-04-08T11:10:28;11.13;;;7.60;;
75441;SDS011;64019;48.312;14.226;2023-04-08T11:12:54;12.73;;;7.90;;
75441;SDS011;64019;48.312;14.226;2023-04-08T11:15:20;11.23;;;7.73;;
75441;SDS011;64019;48.312;14.226;2023-04-08T11:17:47;11.83;;;7.70;;
75441;SDS011;64019;48.312;14.226;2023-04-08T11:20:13;11.83;;;7.97;;
75441;SDS011;64019;48.312;14.226;2023-04-08T11:22:39;11.43;;;7.57;;
75441;SDS011;64019;48.312;14.226;2023-04-08T11:25:08;11.07;;;7.13;;
75441;SDS011;64019;48.312;14.226;2023-04-08T11:27:34;13.57;;;8.47;;
75441;SDS011;64019;48.312;14.226;2023-04-08T11:30:01;13.33;;;9.60;;
75441;SDS011;64019;48.312;14.226;2023-04-08T11:32:27;13.10;;;8.70;;
75441;SDS011;64019;48.312;14.226;2023-04-08T11:34:53;13.10;;;8.10;;
75441;SDS011;64019;48.312;14.226;2023-04-08T11:37:19;15.93;;;9.13;;
75441;SDS011;64019;48.312;14.226;2023-04-08T11:39:45;12.80;;;8.13;;
75441;SDS011;64019;48.312;14.226;2023-04-08T11:42:29;13.30;;;7.17;;
75441;SDS011;64019;48.312;14.226;2023-04-08T11:44:56;18.17;;;9.13;;
75441;SDS011;64019;48.312;14.226;2023-04-08T11:47:29;17.57;;;9.80;;
75441;SDS011;64019;48.312;14.226;2023-04-08T11:49:58;15.50;;;9.37;;
75441;SDS011;64019;48.312;14.226;2023-04-08T11:52:45;17.37;;;9.43;;
75441;SDS011;64019;48.312;14.226;2023-04-08T11:55:32;14.10;;;9.40;;
75441;SDS011;64019;48.312;14.226;2023-04-08T11:58:03;15.17;;;8.70;;
75441;SDS011;64019;48.312;14.226;2023-04-08T12:00:31;15.10;;;9.27;;
75441;SDS011;64019;48.312;14.226;2023-04-08T12:02:57;17.53;;;10.90;;
75441;SDS011;64019;48.312;14.226;2023-04-08T12:05:23;16.27;;;8.90;;
75441;SDS011;64019;48.312;14.226;2023-04-08T12:07:48;14.97;;;9.27;;
75441;SDS011;64019;48.312;14.226;2023-04-08T12:10:14;15.97;;;9.43;;
75441;SDS011;64019;48.312;14.226;2023-04-08T12:12:40;17.20;;;9.83;;
75441;SDS011;64019;48.312;14.226;2023-04-08T12:15:06;14.23;;;9.60;;
75441;SDS011;64019;48.312;14.226;2023-04-08T12:17:33;17.67;;;9.80;;
75441;SDS011;64019;48.312;14.226;2023-04-08T12:19:59;17.13;;;9.43;;
75441;SDS011;64019;48.312;14.226;2023-04-08T12:22:25;16.63;;;8.90;;
75441;SDS011;64019;48.312;14.226;2023-04-08T12:24:51;14.83;;;9.50;;
75441;SDS011;64019;48.312;14.226;2023-04-08T12:27:17;13.10;;;8.90;;
75441;SDS011;64019;48.312;14.226;2023-04-08T12:29:42;16.87;;;8.80;;
75441;SDS011;64019;48.312;14.226;2023-04-08T12:32:08;16.00;;;8.60;;
75441;SDS011;64019;48.312;14.226;2023-04-08T12:34:34;12.53;;;8.33;;
75441;SDS011;64019;48.312;14.226;2023-04-08T12:36:59;15.53;;;9.13;;
75441;SDS011;64019;48.312;14.226;2023-04-08T12:39:26;14.83;;;9.30;;
75441;SDS011;64019;48.312;14.226;2023-04-08T12:41:52;13.77;;;8.53;;
75441;SDS011;64019;48.312;14.226;2023-04-08T12:44:18;12.80;;;8.40;;
75441;SDS011;64019;48.312;14.226;2023-04-08T12:46:43;13.53;;;8.87;;
75441;SDS011;64019;48.312;14.226;2023-04-08T12:49:10;14.13;;;9.23;;
75441;SDS011;64019;48.312;14.226;2023-04-08T12:51:36;16.80;;;9.77;;
75441;SDS011;64019;48.312;14.226;2023-04-08T12:54:02;16.53;;;9.70;;
75441;SDS011;64019;48.312;14.226;2023-04-08T12:56:28;12.47;;;8.47;;
75441;SDS011;64019;48.312;14.226;2023-04-08T12:58:54;16.37;;;9.47;;
75441;SDS011;64019;48.312;14.226;2023-04-08T13:01:21;14.83;;;9.00;;
75441;SDS011;64019;48.312;14.226;2023-04-08T13:03:47;16.10;;;9.77;;
75441;SDS011;64019;48.312;14.226;2023-04-08T13:06:13;14.00;;;9.17;;
75441;SDS011;64019;48.312;14.226;2023-04-08T13:08:40;13.90;;;9.37;;
75441;SDS011;64019;48.312;14.226;2023-04-08T13:11:06;15.20;;;9.20;;
75441;SDS011;64019;48.312;14.226;2023-04-08T13:13:32;16.00;;;9.00;;
75441;SDS011;64019;48.312;14.226;2023-04-08T13:15:58;13.90;;;9.47;;
75441;SDS011;64019;48.312;14.226;2023-04-08T13:18:24;12.10;;;7.73;;
75441;SDS011;64019;48.312;14.226;2023-04-08T13:20:51;15.20;;;8.60;;
75441;SDS011;64019;48.312;14.226;2023-04-08T13:23:17;14.17;;;9.23;;
75441;SDS011;64019;48.312;14.226;2023-04-08T13:25:43;13.40;;;8.10;;
75441;SDS011;64019;48.312;14.226;2023-04-08T13:28:09;16.73;;;8.50;;
75441;SDS011;64019;48.312;14.226;2023-04-08T13:30:35;12.47;;;8.10;;
75441;SDS011;64019;48.312;14.226;2023-04-08T13:33:01;12.73;;;8.63;;
75441;SDS011;64019;48.312;14.226;2023-04-08T13:35:27;13.00;;;8.73;;
75441;SDS011;64019;48.312;14.226;2023-04-08T13:37:53;15.30;;;8.30;;
75441;SDS011;64019;48.312;14.226;2023-04-08T13:40:18;13.37;;;8.43;;
75441;SDS011;64019;48.312;14.226;2023-04-08T13:42:44;9.10;;;7.03;;
75441;SDS011;64019;48.312;14.226;2023-04-08T13:45:09;9.30;;;6.57;;
75441;SDS011;64019;48.312;14.226;2023-04-08T13:47:35;9.40;;;6.20;;
75441;SDS011;64019;48.312;14.226;2023-04-08T13:50:02;8.40;;;6.17;;
75441;SDS011;64019;48.312;14.226;2023-04-08T13:52:28;8.50;;;5.83;;
75441;SDS011;64019;48.312;14.226;2023-04-08T13:54:54;7.73;;;5.17;;
75441;SDS011;64019;48.312;14.226;2023-04-08T13:57:19;7.80;;;5.50;;
75441;SDS011;64019;48.312;14.226;2023-04-08T13:59:45;7.97;;;5.40;;
75441;SDS011;64019;48.312;14.226;2023-04-08T14:02:11;7.83;;;5.50;;
75441;SDS011;64019;48.312;14.226;2023-04-08T14:04:37;9.03;;;5.37;;
75441;SDS011;64019;48.312;14.226;2023-04-08T14:07:03;9.63;;;5.80;;
75441;SDS011;64019;48.312;14.226;2023-04-08T14:09:29;8.77;;;5.23;;
75441;SDS011;64019;48.312;14.226;2023-04-08T14:11:55;7.67;;;4.77;;
75441;SDS011;64019;48.312;14.226;2023-04-08T14:14:21;7.80;;;4.73;;
75441;SDS011;64019;48.312;14.226;2023-04-08T14:16:46;6.80;;;5.00;;
75441;SDS011;64019;48.312;14.226;2023-04-08T14:19:13;6.30;;;4.60;;
75441;SDS011;64019;48.312;14.226;2023-04-08T14:21:39;8.20;;;4.47;;
75441;SDS011;64019;48.312;14.226;2023-04-08T14:24:04;6.87;;;4.53;;
75441;SDS011;64019;48.312;14.226;2023-04-08T14:26:30;6.90;;;4.80;;
75441;SDS011;64019;48.312;14.226;2023-04-08T14:29:00;4.90;;;4.03;;
75441;SDS011;64019;48.312;14.226;2023-04-08T14:31:30;6.87;;;4.73;;
75441;SDS011;64019;48.312;14.226;2023-04-08T14:33:56;6.43;;;4.17;;
75441;SDS011;64019;48.312;14.226;2023-04-08T14:36:22;4.73;;;3.93;;
75441;SDS011;64019;48.312;14.226;2023-04-08T14:38:48;4.67;;;3.70;;
75441;SDS011;64019;48.312;14.226;2023-04-08T14:41:14;5.03;;;4.03;;